Time;durP1;ratioP1;P1;durP2;ratioP2;P2;SDS_P1;SDS_P2;PMS_P1;PMS_P2;Temp;Humidity;BMP_temperature;BMP_pressure;BME280_temperature;BME280_humidity;BME280_pressure;Samples;Min_cycle;Max_cycle;Signal;HPM_P1;HPM_P2
2020/12/19 00:01:36;;;;;;;;;;;;;;;19.76;40.54;102160.25;5098510;28;816;-53
2020/12/19 00:04:01;;;;;;;;;;;;;;;20.51;39.04;102160.34;5098434;28;756;-49
2020/12/19 00:06:27;;;;;;;;;;;;;;;20.49;38.93;102165.28;5098285;28;957;-49
2020/12/19 00:08:52;;;;;;;;;;;;;;;20.32;39.43;102164.63;5097595;28;747;-48
2020/12/19 00:11:17;;;;;;;;;;;;;;;20.00;39.97;102159.97;5096995;28;814;-50
2020/12/19 00:13:43;;;;;;;;;;;;;;;19.62;40.70;102168.13;5098512;28;756;-50
2020/12/19 00:16:12;;;;;;;;;;;;;;;20.26;39.51;102161.00;5098124;28;878;-51
2020/12/19 00:18:38;;;;;;;;;;;;;;;20.49;38.93;102173.56;5098071;28;1040;-49
2020/12/19 00:21:03;;;;;;;;;;;;;;;20.18;39.67;102178.88;5097944;28;1980;-49
2020/12/19 00:23:29;;;;;;;;;;;;;;;20.05;39.55;102179.34;5098196;28;843;-52
2020/12/19 00:25:54;;;;;;;;;;;;;;;19.55;40.68;102186.00;5098014;28;752;-50
2020/12/19 00:28:19;;;;;;;;;;;;;;;19.58;40.86;102185.47;5098445;28;755;-51
2020/12/19 00:30:45;;;;;;;;;;;;;;;20.44;38.96;102170.78;5097967;28;763;-48
2020/12/19 00:33:10;;;;;;;;;;;;;;;20.16;39.62;102175.56;5098176;28;755;-52
2020/12/19 00:35:36;;;;;;;;;;;;;;;20.17;39.38;102176.38;5097885;28;937;-49
2020/12/19 00:38:01;;;;;;;;;;;;;;;19.96;40.08;102178.13;5097625;28;794;-46
2020/12/19 00:40:27;;;;;;;;;;;;;;;19.46;40.94;102182.84;5097688;28;1906;-52
2020/12/19 00:42:52;;;;;;;;;;;;;;;20.03;39.88;102178.75;5097789;28;751;-51
2020/12/19 00:45:18;;;;;;;;;;;;;;;20.67;38.37;102185.31;5114926;28;1191;-52
2020/12/19 00:47:43;;;;;;;;;;;;;;;20.29;39.25;102178.97;5118181;28;739;-52
2020/12/19 00:50:08;;;;;;;;;;;;;;;20.17;39.58;102174.47;5113997;28;956;-50
2020/12/19 00:52:34;;;;;;;;;;;;;;;19.61;40.53;102176.66;5097498;28;811;-47
2020/12/19 00:54:59;;;;;;;;;;;;;;;19.44;41.31;102174.84;5097429;28;991;-47
2020/12/19 00:57:28;;;;;;;;;;;;;;;20.52;38.94;102173.06;5097526;28;807;-51
2020/12/19 00:59:53;;;;;;;;;;;;;;;20.34;39.09;102179.00;5097356;28;1914;-47
2020/12/19 01:02:19;;;;;;;;;;;;;;;20.20;39.54;102175.03;5097270;28;866;-50
2020/12/19 01:04:44;;;;;;;;;;;;;;;19.95;40.05;102180.06;5097162;28;988;-49
2020/12/19 01:07:11;;;;;;;;;;;;;;;19.28;41.37;102175.78;5097282;28;839;-48
2020/12/19 01:09:36;;;;;;;;;;;;;;;20.36;39.26;102179.56;5097173;28;743;-48
2020/12/19 01:12:03;;;;;;;;;;;;;;;20.33;39.05;102174.59;5097226;28;779;-48
2020/12/19 01:14:29;;;;;;;;;;;;;;;20.15;39.49;102167.53;5097515;28;819;-46
2020/12/19 01:16:54;;;;;;;;;;;;;;;20.07;39.44;102166.09;5097027;28;811;-48
2020/12/19 01:19:19;;;;;;;;;;;;;;;19.14;41.48;102170.63;5096558;28;1980;-47
2020/12/19 01:21:45;;;;;;;;;;;;;;;20.16;39.67;102170.03;5096360;28;957;-48
2020/12/19 01:24:10;;;;;;;;;;;;;;;20.70;38.34;102175.69;5096940;28;819;-48
2020/12/19 01:26:36;;;;;;;;;;;;;;;20.31;39.43;102165.72;5096866;28;807;-51
2020/12/19 01:29:01;;;;;;;;;;;;;;;20.06;39.67;102172.69;5097108;28;791;-49
2020/12/19 01:31:26;;;;;;;;;;;;;;;19.53;40.94;102169.72;5096847;28;1006;-48
2020/12/19 01:33:52;;;;;;;;;;;;;;;20.02;39.79;102174.34;5096747;28;843;-49
2020/12/19 01:36:18;;;;;;;;;;;;;;;20.50;38.71;102168.91;5096729;28;1000;-47
2020/12/19 01:38:44;;;;;;;;;;;;;;;20.11;39.71;102169.97;5096456;28;1890;-48
2020/12/19 01:41:09;;;;;;;;;;;;;;;20.05;39.72;102161.91;5096807;28;807;-48
2020/12/19 01:43:45;;;;;;;;;;;;;;;19.61;40.45;102160.13;5099667;28;1193;-53
2020/12/19 01:46:11;;;;;;;;;;;;;;;19.73;40.57;102165.50;5116830;28;747;-53
2020/12/19 01:48:36;;;;;;;;;;;;;;;20.62;38.74;102165.91;5117178;28;783;-53
2020/12/19 01:51:02;;;;;;;;;;;;;;;20.28;39.34;102166.25;5105470;28;1050;-52
2020/12/19 01:53:28;;;;;;;;;;;;;;;20.10;39.66;102171.06;5096429;28;736;-53
2020/12/19 01:55:54;;;;;;;;;;;;;;;19.77;40.30;102167.47;5096589;28;867;-53
2020/12/19 01:58:19;;;;;;;;;;;;;;;19.33;41.48;102175.81;5095093;28;911;-51
2020/12/19 02:00:45;;;;;;;;;;;;;;;20.28;39.49;102169.00;5096516;28;1964;-53
2020/12/19 02:03:10;;;;;;;;;;;;;;;20.30;39.16;102170.41;5096494;28;811;-50
2020/12/19 02:05:36;;;;;;;;;;;;;;;20.14;39.53;102174.97;5096646;28;977;-49
2020/12/19 02:08:02;;;;;;;;;;;;;;;19.98;40.04;102171.25;5096326;28;855;-53
2020/12/19 02:10:27;;;;;;;;;;;;;;;19.58;40.71;102171.69;5096342;28;751;-48
2020/12/19 02:12:53;;;;;;;;;;;;;;;19.85;40.38;102173.63;5095334;28;1400;-52
2020/12/19 02:15:18;;;;;;;;;;;;;;;20.74;38.16;102177.63;5096296;28;803;-47
2020/12/19 02:17:43;;;;;;;;;;;;;;;20.17;39.52;102177.22;5096203;28;886;-47
2020/12/19 02:20:09;;;;;;;;;;;;;;;19.98;40.05;102178.72;5096101;28;1964;-48
2020/12/19 02:22:35;;;;;;;;;;;;;;;19.70;40.60;102171.50;5096177;28;815;-48
2020/12/19 02:25:00;;;;;;;;;;;;;;;19.28;41.56;102176.59;5096589;28;732;-46
2020/12/19 02:27:25;;;;;;;;;;;;;;;20.45;39.05;102169.69;5096359;28;807;-49
2020/12/19 02:29:51;;;;;;;;;;;;;;;20.98;37.88;102166.97;5096167;28;838;-53
2020/12/19 02:32:16;;;;;;;;;;;;;;;20.96;37.79;102171.13;5098597;28;806;-52
2020/12/19 02:34:42;;;;;;;;;;;;;;;20.54;38.64;102169.19;5100223;28;1019;-51
2020/12/19 02:37:07;;;;;;;;;;;;;;;20.14;39.60;102177.75;5100284;28;813;-53
2020/12/19 02:39:32;;;;;;;;;;;;;;;19.80;40.16;102177.19;5099974;28;1965;-53
2020/12/19 02:41:58;;;;;;;;;;;;;;;19.23;41.47;102167.44;5100226;28;783;-49
2020/12/19 02:44:23;;;;;;;;;;;;;;;19.95;40.15;102173.72;5109837;28;963;-49
2020/12/19 02:46:49;;;;;;;;;;;;;;;20.63;38.68;102178.63;5120360;28;783;-53
2020/12/19 02:49:14;;;;;;;;;;;;;;;20.06;39.82;102175.47;5120498;28;835;-48
2020/12/19 02:51:40;;;;;;;;;;;;;;;20.06;39.80;102169.13;5103079;28;1008;-50
2020/12/19 02:54:05;;;;;;;;;;;;;;;19.49;40.84;102182.34;5099775;28;823;-48
2020/12/19 02:56:31;;;;;;;;;;;;;;;19.84;40.44;102181.09;5099873;28;807;-54
2020/12/19 02:58:56;;;;;;;;;;;;;;;20.61;38.74;102181.69;5099704;28;1905;-47
2020/12/19 03:01:25;;;;;;;;;;;;;;;20.21;39.27;102179.47;5099916;28;748;-48
2020/12/19 03:03:51;;;;;;;;;;;;;;;20.08;39.88;102184.31;5099709;28;815;-47
2020/12/19 03:06:16;;;;;;;;;;;;;;;19.93;40.13;102178.66;5099516;28;973;-50
2020/12/19 03:08:41;;;;;;;;;;;;;;;19.35;41.26;102181.94;5099620;28;802;-49
2020/12/19 03:11:07;;;;;;;;;;;;;;;20.03;39.84;102183.44;5099622;28;782;-49
2020/12/19 03:13:32;;;;;;;;;;;;;;;20.70;38.53;102195.03;5099827;28;731;-53
2020/12/19 03:15:58;;;;;;;;;;;;;;;20.25;39.38;102188.88;5099499;28;739;-51
2020/12/19 03:18:23;;;;;;;;;;;;;;;20.07;39.71;102188.19;5099217;28;1063;-52
2020/12/19 03:20:48;;;;;;;;;;;;;;;19.54;40.66;102187.09;5099104;28;1922;-49
2020/12/19 03:23:14;;;;;;;;;;;;;;;19.47;40.93;102188.13;5099441;28;751;-54
2020/12/19 03:25:39;;;;;;;;;;;;;;;20.08;39.70;102195.38;5099302;28;827;-53
2020/12/19 03:28:05;;;;;;;;;;;;;;;20.68;38.61;102192.53;5099217;28;827;-53
2020/12/19 03:30:30;;;;;;;;;;;;;;;20.25;39.55;102194.41;5099137;28;851;-49
2020/12/19 03:32:55;;;;;;;;;;;;;;;20.06;39.76;102186.50;5098995;28;859;-52
2020/12/19 03:35:21;;;;;;;;;;;;;;;19.52;40.81;102192.00;5099200;28;957;-52
2020/12/19 03:37:47;;;;;;;;;;;;;;;19.82;40.46;102191.53;5098971;28;771;-49
2020/12/19 03:40:12;;;;;;;;;;;;;;;20.56;38.79;102203.75;5098855;28;1918;-53
2020/12/19 03:42:37;;;;;;;;;;;;;;;20.19;39.50;102204.59;5098382;28;732;-47
2020/12/19 03:45:04;;;;;;;;;;;;;;;20.15;39.63;102200.69;5113798;28;1216;-49
2020/12/19 03:47:29;;;;;;;;;;;;;;;19.81;40.33;102201.75;5119099;28;815;-49
2020/12/19 03:49:54;;;;;;;;;;;;;;;19.18;41.74;102197.69;5117464;28;1000;-50
2020/12/19 03:52:20;;;;;;;;;;;;;;;19.94;40.33;102202.44;5097455;28;775;-51
2020/12/19 03:54:45;;;;;;;;;;;;;;;20.69;38.66;102205.22;5097404;28;748;-52
2020/12/19 03:57:11;;;;;;;;;;;;;;;20.27;39.47;102203.25;5099010;28;803;-50
2020/12/19 03:59:36;;;;;;;;;;;;;;;20.20;39.34;102199.88;5098564;28;1914;-47
2020/12/19 04:02:02;;;;;;;;;;;;;;;19.40;40.95;102200.44;5098767;28;752;-51
2020/12/19 04:04:27;;;;;;;;;;;;;;;19.78;40.63;102210.53;5098669;28;827;-53
2020/12/19 04:06:52;;;;;;;;;;;;;;;20.59;38.82;102217.03;5098222;28;945;-51
2020/12/19 04:09:18;;;;;;;;;;;;;;;20.16;39.71;102214.22;5098309;28;791;-52
2020/12/19 04:11:43;;;;;;;;;;;;;;;20.19;39.58;102218.41;5098478;28;755;-47
2020/12/19 04:14:09;;;;;;;;;;;;;;;19.47;41.11;102215.72;5096754;28;882;-54
2020/12/19 04:16:34;;;;;;;;;;;;;;;19.74;40.65;102223.19;5097753;28;902;-53
2020/12/19 04:18:59;;;;;;;;;;;;;;;20.63;38.62;102215.38;5097781;28;1917;-52
2020/12/19 04:21:25;;;;;;;;;;;;;;;20.42;39.17;102224.66;5098018;28;953;-52
2020/12/19 04:23:50;;;;;;;;;;;;;;;20.39;39.24;102223.25;5098145;28;744;-49
2020/12/19 04:26:16;;;;;;;;;;;;;;;19.93;40.16;102223.66;5098260;28;846;-49
2020/12/19 04:28:41;;;;;;;;;;;;;;;19.45;41.10;102223.41;5097849;28;823;-49
2020/12/19 04:31:06;;;;;;;;;;;;;;;20.15;39.66;102223.59;5097976;28;799;-59
2020/12/19 04:33:32;;;;;;;;;;;;;;;20.53;38.77;102212.56;5098092;28;871;-58
2020/12/19 04:35:57;;;;;;;;;;;;;;;20.32;39.24;102222.63;5097947;28;957;-48
2020/12/19 04:38:23;;;;;;;;;;;;;;;20.22;39.34;102217.03;5097715;28;779;-54
2020/12/19 04:40:48;;;;;;;;;;;;;;;19.61;40.50;102218.06;5097867;28;1975;-50
2020/12/19 04:43:17;;;;;;;;;;;;;;;19.74;40.31;102228.72;5097768;28;775;-53
2020/12/19 04:45:43;;;;;;;;;;;;;;;20.45;38.77;102227.69;5080620;28;855;-58
2020/12/19 04:48:08;;;;;;;;;;;;;;;20.18;39.40;102220.31;5102331;28;874;-53
2020/12/19 04:50:35;;;;;;;;;;;;;;;20.15;39.37;102229.13;5097454;28;827;-60
2020/12/19 04:53:00;;;;;;;;;;;;;;;20.04;39.68;102227.38;5107709;28;768;-57
2020/12/19 04:55:26;;;;;;;;;;;;;;;19.42;41.17;102226.69;5116600;28;924;-55
2020/12/19 04:57:51;;;;;;;;;;;;;;;20.44;38.93;102228.81;5118061;28;735;-52
2020/12/19 05:00:17;;;;;;;;;;;;;;;20.72;37.94;102228.75;5116612;28;1972;-49
2020/12/19 05:02:42;;;;;;;;;;;;;;;20.12;39.30;102229.66;5117932;28;783;-57
2020/12/19 05:05:08;;;;;;;;;;;;;;;20.11;39.06;102233.50;5113745;28;1011;-55
2020/12/19 05:07:33;;;;;;;;;;;;;;;19.57;40.28;102230.72;5097520;28;814;-57
2020/12/19 05:09:58;;;;;;;;;;;;;;;20.01;39.73;102236.19;5097410;28;839;-50
2020/12/19 05:12:24;;;;;;;;;;;;;;;20.64;38.33;102235.59;5097418;28;744;-52
2020/12/19 05:14:50;;;;;;;;;;;;;;;20.31;38.93;102234.78;5097142;28;768;-48
2020/12/19 05:17:16;;;;;;;;;;;;;;;20.35;38.80;102233.97;5097231;28;791;-57
2020/12/19 05:19:41;;;;;;;;;;;;;;;19.90;39.70;102243.53;5096800;28;1909;-56
2020/12/19 05:22:06;;;;;;;;;;;;;;;19.46;40.58;102238.03;5096999;28;790;-55
2020/12/19 05:24:34;;;;;;;;;;;;;;;20.14;39.57;102248.72;5097312;28;726;-56
2020/12/19 05:27:00;;;;;;;;;;;;;;;20.55;38.27;102242.69;5095940;28;817;-56
2020/12/19 05:29:25;;;;;;;;;;;;;;;20.09;39.25;102246.75;5095640;28;1506;-55
2020/12/19 05:31:54;;;;;;;;;;;;;;;19.85;39.71;102251.72;5095775;28;783;-56
2020/12/19 05:34:20;;;;;;;;;;;;;;;19.41;40.87;102246.25;5096750;28;882;-56
2020/12/19 05:36:46;;;;;;;;;;;;;;;19.50;40.72;102255.72;5096492;28;949;-57
2020/12/19 05:39:11;;;;;;;;;;;;;;;20.35;38.99;102246.97;5095440;28;1902;-55
2020/12/19 05:41:37;;;;;;;;;;;;;;;20.09;39.39;102249.50;5097040;28;831;-53
2020/12/19 05:44:03;;;;;;;;;;;;;;;20.05;39.36;102261.31;5103402;28;1133;-52
2020/12/19 05:46:28;;;;;;;;;;;;;;;19.59;40.57;102262.47;5117125;28;783;-52
2020/12/19 05:48:54;;;;;;;;;;;;;;;19.14;41.50;102264.38;5117021;28;763;-49
2020/12/19 05:51:20;;;;;;;;;;;;;;;20.24;39.28;102259.84;5102813;28;960;-49
2020/12/19 05:53:45;;;;;;;;;;;;;;;20.54;38.26;102271.41;5095354;28;823;-51
2020/12/19 05:56:11;;;;;;;;;;;;;;;20.19;39.27;102273.63;5096638;28;776;-50
2020/12/19 05:58:36;;;;;;;;;;;;;;;20.03;39.33;102275.38;5096454;28;807;-52
2020/12/19 06:01:01;;;;;;;;;;;;;;;19.49;40.60;102271.47;5096704;28;1913;-50
2020/12/19 06:03:27;;;;;;;;;;;;;;;19.68;40.60;102273.88;5096721;28;779;-55
2020/12/19 06:05:52;;;;;;;;;;;;;;;20.59;38.25;102280.59;5095767;28;962;-50
2020/12/19 06:08:18;;;;;;;;;;;;;;;20.24;39.12;102278.34;5101937;28;1312;-53
2020/12/19 06:10:44;;;;;;;;;;;;;;;19.95;39.54;102285.00;5103734;28;757;-47
2020/12/19 06:13:15;;;;;;;;;;;;;;;19.78;39.92;102285.06;5103385;28;799;-51
2020/12/19 06:15:49;;;;;;;;;;;;;;;19.33;41.00;102283.38;5103002;28;736;-49
2020/12/19 06:18:33;;;;;;;;;;;;;;;20.46;38.70;102284.63;5103322;28;739;-54
2020/12/19 06:20:58;;;;;;;;;;;;;;;20.34;38.90;102286.72;5102773;28;1909;-52
2020/12/19 06:23:26;;;;;;;;;;;;;;;20.17;39.24;102298.75;5103270;28;756;-47
2020/12/19 06:25:51;;;;;;;;;;;;;;;19.73;40.13;102301.53;5101952;28;1382;-52
2020/12/19 06:28:36;;;;;;;;;;;;;;;19.10;41.37;102299.06;5101641;28;1276;-52
2020/12/19 06:31:05;;;;;;;;;;;;;;;20.31;39.07;102304.69;5103030;28;904;-54
2020/12/19 06:33:32;;;;;;;;;;;;;;;20.46;38.54;102306.72;5102823;28;759;-57
2020/12/19 06:35:58;;;;;;;;;;;;;;;19.94;39.70;102301.81;5100920;28;902;-59
2020/12/19 06:38:39;;;;;;;;;;;;;;;20.01;39.47;102305.19;5099592;28;879;-58
2020/12/19 06:41:04;;;;;;;;;;;;;;;19.33;40.84;102302.69;5101720;28;1906;-58
2020/12/19 06:43:29;;;;;;;;;;;;;;;20.15;39.23;102303.69;5102364;28;999;-59
2020/12/19 06:45:55;;;;;;;;;;;;;;;20.62;38.17;102304.94;5123030;28;759;-58
2020/12/19 06:48:27;;;;;;;;;;;;;;;19.96;39.63;102305.13;5121828;28;908;-57
2020/12/19 06:50:56;;;;;;;;;;;;;;;19.99;39.32;102301.84;5112645;28;1071;-59
2020/12/19 06:53:21;;;;;;;;;;;;;;;19.37;40.69;102309.38;5102484;28;755;-57
2020/12/19 06:55:46;;;;;;;;;;;;;;;20.08;39.30;102299.47;5102654;28;735;-55
2020/12/19 06:58:16;;;;;;;;;;;;;;;20.59;38.26;102304.63;5101981;28;739;-54
2020/12/19 07:00:42;;;;;;;;;;;;;;;20.07;39.44;102309.69;5101185;28;1906;-54
2020/12/19 07:03:07;;;;;;;;;;;;;;;19.98;39.46;102312.06;5102432;28;747;-55
2020/12/19 07:05:33;;;;;;;;;;;;;;;19.61;40.39;102307.19;5101996;28;1096;-55
2020/12/19 07:08:17;;;;;;;;;;;;;;;19.91;39.68;102303.16;5102453;28;783;-55
2020/12/19 07:10:43;;;;;;;;;;;;;;;20.67;38.19;102307.78;5089059;28;824;-57
2020/12/19 07:13:08;;;;;;;;;;;;;;;20.35;38.67;102314.09;5102481;28;822;-52
2020/12/19 07:15:41;;;;;;;;;;;;;;;20.17;39.04;102308.94;5102351;28;1175;-55
2020/12/19 07:18:08;;;;;;;;;;;;;;;19.68;40.04;102304.25;5100419;28;867;-52
2020/12/19 07:20:33;;;;;;;;;;;;;;;19.42;40.94;102306.69;5097163;28;1974;-52
2020/12/19 07:22:59;;;;;;;;;;;;;;;20.48;38.57;102300.94;5099097;28;787;-53
2020/12/19 07:25:24;;;;;;;;;;;;;;;20.29;38.82;102306.03;5098873;28;783;-51
2020/12/19 07:27:50;;;;;;;;;;;;;;;20.04;39.32;102314.91;5098847;28;541;-51
2020/12/19 07:30:15;;;;;;;;;;;;;;;19.88;39.59;102311.13;5098884;28;819;-49
2020/12/19 07:32:41;;;;;;;;;;;;;;;19.24;41.13;102315.28;5098768;28;788;-53
2020/12/19 07:35:06;;;;;;;;;;;;;;;20.31;38.92;102309.34;5098640;28;957;-49
2020/12/19 07:37:31;;;;;;;;;;;;;;;20.35;38.62;102316.03;5099109;28;771;-53
2020/12/19 07:40:06;;;;;;;;;;;;;;;20.02;39.61;102320.69;5098620;28;1906;-53
2020/12/19 07:42:32;;;;;;;;;;;;;;;19.96;39.69;102316.19;5098597;28;831;-55
2020/12/19 07:44:57;;;;;;;;;;;;;;;19.36;40.62;102315.13;5112962;28;1137;-54
2020/12/19 07:47:23;;;;;;;;;;;;;;;20.21;39.24;102314.78;5119164;28;827;-56
2020/12/19 07:49:48;;;;;;;;;;;;;;;20.56;38.17;102313.47;5116719;28;1019;-57
2020/12/19 07:52:17;;;;;;;;;;;;;;;20.18;39.19;102307.84;5098262;28;830;-52
2020/12/19 07:54:52;;;;;;;;;;;;;;;19.91;39.54;102311.44;5098620;28;822;-54
2020/12/19 07:57:17;;;;;;;;;;;;;;;19.49;40.27;102312.03;5098250;28;790;-52
2020/12/19 07:59:43;;;;;;;;;;;;;;;20.05;39.41;102317.41;5098241;28;1905;-55
2020/12/19 08:02:08;;;;;;;;;;;;;;;20.54;38.13;102318.41;5098206;28;799;-57
2020/12/19 08:04:34;;;;;;;;;;;;;;;20.29;38.63;102311.56;5096917;28;831;-56
2020/12/19 08:06:59;;;;;;;;;;;;;;;20.25;38.76;102314.00;5097772;28;988;-56
2020/12/19 08:09:25;;;;;;;;;;;;;;;19.55;40.20;102312.91;5098189;28;819;-56
2020/12/19 08:11:51;;;;;;;;;;;;;;;19.84;40.01;102310.81;5097955;28;779;-55
2020/12/19 08:14:20;;;;;;;;;;;;;;;20.66;38.23;102310.78;5097845;28;855;-55
2020/12/19 08:16:45;;;;;;;;;;;;;;;20.16;39.06;102301.75;5098313;28;771;-56
2020/12/19 08:19:11;;;;;;;;;;;;;;;20.18;39.11;102308.69;5095934;28;1914;-56
2020/12/19 08:21:37;;;;;;;;;;;;;;;19.71;39.91;102311.16;5097554;28;961;-50
2020/12/19 08:24:03;;;;;;;;;;;;;;;19.40;40.73;102308.03;5096685;28;899;-57
2020/12/19 08:26:28;;;;;;;;;;;;;;;20.42;38.73;102302.81;5097870;28;847;-55
2020/12/19 08:29:00;;;;;;;;;;;;;;;20.37;38.70;102297.28;5097475;28;811;-51
2020/12/19 08:31:26;;;;;;;;;;;;;;;20.25;38.86;102297.44;5097866;28;771;-59
2020/12/19 08:33:51;;;;;;;;;;;;;;;20.00;39.38;102287.78;5096233;28;763;-56
2020/12/19 08:36:17;;;;;;;;;;;;;;;19.38;40.63;102291.72;5096397;28;1016;-54
2020/12/19 08:38:42;;;;;;;;;;;;;;;19.93;39.44;102281.63;5097582;28;523;-57
2020/12/19 08:41:16;;;;;;;;;;;;;;;20.64;37.94;102291.69;5096199;28;1990;-56
2020/12/19 08:43:42;;;;;;;;;;;;;;;20.27;38.87;102283.34;5101377;28;1177;-56
2020/12/19 08:46:12;;;;;;;;;;;;;;;20.17;38.88;102287.69;5117891;28;734;-55
2020/12/19 08:48:37;;;;;;;;;;;;;;;19.74;40.07;102283.91;5117470;28;794;-56
2020/12/19 08:51:06;;;;;;;;;;;;;;;19.85;39.85;102286.81;5106226;28;1046;-57
2020/12/19 08:53:32;;;;;;;;;;;;;;;20.68;37.91;102289.28;5097596;28;743;-49
2020/12/19 08:55:57;;;;;;;;;;;;;;;21.06;37.16;102281.78;5096993;28;759;-55
2020/12/19 08:58:23;;;;;;;;;;;;;;;20.91;37.35;102278.91;5096082;28;1393;-54
2020/12/19 09:00:48;;;;;;;;;;;;;;;20.63;37.95;102272.59;5097190;28;1927;-56
2020/12/19 09:03:14;;;;;;;;;;;;;;;20.26;38.59;102267.88;5096858;28;748;-55
2020/12/19 09:05:43;;;;;;;;;;;;;;;19.66;39.89;102274.13;5096762;28;957;-54
2020/12/19 09:08:12;;;;;;;;;;;;;;;19.60;40.13;102271.56;5097324;28;779;-53
2020/12/19 09:10:37;;;;;;;;;;;;;;;20.68;38.01;102265.22;5096664;28;752;-51
2020/12/19 09:13:18;;;;;;;;;;;;;;;20.23;38.67;102265.63;5097064;28;776;-54
2020/12/19 09:15:44;;;;;;;;;;;;;;;20.33;38.54;102260.22;5096870;28;728;-48
2020/12/19 09:18:16;;;;;;;;;;;;;;;19.78;39.62;102253.84;5096437;28;913;-51
2020/12/19 09:20:44;;;;;;;;;;;;;;;19.19;40.91;102255.34;5096682;28;1905;-50
2020/12/19 09:23:10;;;;;;;;;;;;;;;20.41;38.64;102240.41;5096697;28;830;-52
2020/12/19 09:25:35;;;;;;;;;;;;;;;20.56;37.95;102234.13;5096528;28;743;-50
2020/12/19 09:28:01;;;;;;;;;;;;;;;20.30;38.59;102235.88;5096697;28;752;-54
2020/12/19 09:30:26;;;;;;;;;;;;;;;20.00;38.99;102224.28;5096602;28;886;-58
2020/12/19 09:32:51;;;;;;;;;;;;;;;19.61;39.97;102224.41;5096614;28;732;-50
2020/12/19 09:35:17;;;;;;;;;;;;;;;19.33;40.85;102217.19;5096360;28;1016;-55
2020/12/19 09:37:42;;;;;;;;;;;;;;;20.40;38.37;102216.63;5096493;28;740;-55
2020/12/19 09:40:08;;;;;;;;;;;;;;;20.41;38.42;102209.16;5096088;28;1898;-50
2020/12/19 09:42:33;;;;;;;;;;;;;;;20.17;38.70;102210.38;5095895;28;700;-49
2020/12/19 09:44:59;;;;;;;;;;;;;;;20.00;39.08;102204.13;5110912;28;1200;-48
2020/12/19 09:47:24;;;;;;;;;;;;;;;19.48;40.25;102195.28;5116719;28;722;-52
2020/12/19 09:49:49;;;;;;;;;;;;;;;20.00;39.45;102195.84;5115361;28;953;-52
2020/12/19 09:52:15;;;;;;;;;;;;;;;20.63;38.03;102196.03;5096165;28;751;-53
2020/12/19 09:54:40;;;;;;;;;;;;;;;20.14;38.90;102193.47;5096069;28;740;-52
2020/12/19 09:57:06;;;;;;;;;;;;;;;20.20;38.71;102197.13;5096638;28;1048;-54
2020/12/19 09:59:31;;;;;;;;;;;;;;;19.76;39.55;102193.38;5096415;28;1909;-51
2020/12/19 10:01:56;;;;;;;;;;;;;;;19.47;40.27;102193.66;5096045;28;832;-50
2020/12/19 10:04:22;;;;;;;;;;;;;;;19.71;39.91;102186.97;5096167;28;803;-57
2020/12/19 10:06:50;;;;;;;;;;;;;;;20.46;38.46;102189.88;5095955;28;1157;-56
2020/12/19 10:09:16;;;;;;;;;;;;;;;20.27;38.63;102178.38;5096063;28;859;-56
2020/12/19 10:11:41;;;;;;;;;;;;;;;20.14;38.85;102180.50;5096251;28;732;-56
2020/12/19 10:14:07;;;;;;;;;;;;;;;19.73;39.58;102180.13;5096169;28;767;-55
2020/12/19 10:16:32;;;;;;;;;;;;;;;19.62;39.99;102176.41;5095996;28;858;-52
2020/12/19 10:18:58;;;;;;;;;;;;;;;20.52;38.06;102167.53;5096012;28;1209;-54
2020/12/19 10:21:23;;;;;;;;;;;;;;;20.29;38.45;102173.44;5095965;28;1970;-54
2020/12/19 10:23:48;;;;;;;;;;;;;;;20.36;38.31;102176.81;5096067;28;806;-54
2020/12/19 10:26:14;;;;;;;;;;;;;;;19.86;39.50;102175.28;5095842;28;751;-54
2020/12/19 10:28:39;;;;;;;;;;;;;;;19.36;40.42;102178.06;5095906;28;819;-54
2020/12/19 10:31:05;;;;;;;;;;;;;;;20.01;39.14;102178.19;5096085;28;784;-54
2020/12/19 10:33:30;;;;;;;;;;;;;;;20.57;38.16;102168.66;5095722;28;840;-52
2020/12/19 10:35:55;;;;;;;;;;;;;;;20.24;38.78;102170.63;5095662;28;965;-54
2020/12/19 10:38:21;;;;;;;;;;;;;;;20.26;38.55;102162.91;5095839;28;886;-53
2020/12/19 10:40:46;;;;;;;;;;;;;;;19.79;39.47;102165.28;5095705;28;1909;-52
2020/12/19 10:43:12;;;;;;;;;;;;;;;19.34;40.43;102169.22;5096084;28;732;-53
2020/12/19 10:45:37;;;;;;;;;;;;;;;20.30;38.70;102164.91;5115814;28;1256;-56
2020/12/19 10:48:03;;;;;;;;;;;;;;;20.34;38.34;102166.03;5115898;28;747;-58
2020/12/19 10:50:28;;;;;;;;;;;;;;;20.19;38.71;102154.88;5109286;28;1000;-58
2020/12/19 10:52:54;;;;;;;;;;;;;;;19.99;39.13;102164.66;5097441;28;855;-55
2020/12/19 10:55:19;;;;;;;;;;;;;;;19.41;40.30;102161.56;5099598;28;860;-57
2020/12/19 10:57:44;;;;;;;;;;;;;;;19.96;39.39;102153.28;5099332;28;835;-56
2020/12/19 11:00:10;;;;;;;;;;;;;;;20.73;37.53;102153.84;5099321;28;1909;-56
2020/12/19 11:02:35;;;;;;;;;;;;;;;20.23;38.58;102155.16;5099140;28;534;-56
2020/12/19 11:05:01;;;;;;;;;;;;;;;20.21;38.81;102160.13;5099388;28;878;-55
2020/12/19 11:07:26;;;;;;;;;;;;;;;19.87;39.31;102163.16;5099250;28;801;-57
2020/12/19 11:09:52;;;;;;;;;;;;;;;19.23;40.67;102161.91;5098800;28;843;-56
2020/12/19 11:12:17;;;;;;;;;;;;;;;20.25;38.93;102158.50;5099372;28;835;-53
2020/12/19 11:14:42;;;;;;;;;;;;;;;20.35;38.27;102147.50;5099257;28;867;-50
2020/12/19 11:17:08;;;;;;;;;;;;;;;20.14;38.72;102147.34;5098834;28;894;-54
2020/12/19 11:19:33;;;;;;;;;;;;;;;20.04;39.02;102152.00;5099286;28;1992;-57
2020/12/19 11:21:59;;;;;;;;;;;;;;;19.61;39.82;102157.34;5099008;28;1009;-57
2020/12/19 11:24:24;;;;;;;;;;;;;;;19.98;39.35;102151.94;5098747;28;767;-53
2020/12/19 11:26:49;;;;;;;;;;;;;;;20.75;37.40;102143.38;5099062;28;731;-56
2020/12/19 11:29:15;;;;;;;;;;;;;;;20.21;38.44;102144.38;5098932;28;806;-57
2020/12/19 11:31:42;;;;;;;;;;;;;;;20.27;38.44;102143.34;5098752;28;767;-56
2020/12/19 11:34:07;;;;;;;;;;;;;;;19.51;40.02;102149.00;5099166;28;735;-55
2020/12/19 11:36:38;;;;;;;;;;;;;;;19.35;40.89;102148.81;5098621;28;961;-56
2020/12/19 11:39:07;;;;;;;;;;;;;;;20.40;38.19;102150.31;5098529;28;847;-52
2020/12/19 11:41:33;;;;;;;;;;;;;;;20.21;38.44;102138.03;5098602;28;835;-56
2020/12/19 11:43:58;;;;;;;;;;;;;;;20.19;38.52;102141.06;5104535;28;1172;-56
2020/12/19 11:46:23;;;;;;;;;;;;;;;19.94;38.98;102149.97;5118781;28;759;-57
2020/12/19 11:48:49;;;;;;;;;;;;;;;19.28;40.63;102143.50;5119369;28;823;-58
2020/12/19 11:51:14;;;;;;;;;;;;;;;20.31;38.36;102152.75;5105410;28;996;-57
2020/12/19 11:53:40;;;;;;;;;;;;;;;20.34;38.23;102146.69;5098385;28;909;-58
2020/12/19 11:56:05;;;;;;;;;;;;;;;20.15;38.63;102142.69;5098554;28;792;-57
2020/12/19 11:58:31;;;;;;;;;;;;;;;19.95;39.20;102148.84;5098168;28;772;-57
2020/12/19 12:00:57;;;;;;;;;;;;;;;19.47;40.14;102149.50;5098134;28;1972;-57
2020/12/19 12:03:22;;;;;;;;;;;;;;;19.32;40.52;102144.66;5098149;28;826;-58
2020/12/19 12:05:48;;;;;;;;;;;;;;;20.15;38.88;102143.50;5097326;28;950;-58
2020/12/19 12:08:13;;;;;;;;;;;;;;;20.34;38.54;102140.31;5098268;28;744;-58
2020/12/19 12:10:38;;;;;;;;;;;;;;;19.93;39.03;102140.03;5098225;28;803;-57
2020/12/19 12:13:04;;;;;;;;;;;;;;;19.86;39.35;102142.19;5098238;28;756;-53
2020/12/19 12:15:29;;;;;;;;;;;;;;;19.42;40.32;102143.94;5097950;28;811;-53
2020/12/19 12:17:54;;;;;;;;;;;;;;;20.36;38.40;102140.91;5098339;28;843;-54
2020/12/19 12:20:20;;;;;;;;;;;;;;;20.44;38.18;102137.63;5097344;28;1914;-51
2020/12/19 12:22:45;;;;;;;;;;;;;;;20.25;38.72;102136.41;5097846;28;772;-54
2020/12/19 12:25:11;;;;;;;;;;;;;;;20.02;38.85;102135.69;5097918;28;871;-56
2020/12/19 12:27:37;;;;;;;;;;;;;;;19.26;40.52;102147.59;5097994;28;793;-47
2020/12/19 12:30:05;;;;;;;;;;;;;;;19.88;39.57;102145.50;5097977;28;763;-50
2020/12/19 12:32:31;;;;;;;;;;;;;;;20.62;37.87;102144.66;5097746;28;747;-52
2020/12/19 12:34:56;;;;;;;;;;;;;;;20.09;39.01;102133.53;5097293;28;973;-48
2020/12/19 12:37:21;;;;;;;;;;;;;;;20.22;38.76;102140.53;5097588;28;810;-53
2020/12/19 12:39:47;;;;;;;;;;;;;;;19.60;39.74;102150.16;5098026;28;1894;-55
2020/12/19 12:42:12;;;;;;;;;;;;;;;19.94;39.14;102147.22;5097485;28;790;-56
2020/12/19 12:44:38;;;;;;;;;;;;;;;20.65;37.82;102151.56;5109491;28;1185;-53
2020/12/19 12:47:04;;;;;;;;;;;;;;;20.24;38.65;102148.53;5117887;28;747;-53
2020/12/19 12:49:30;;;;;;;;;;;;;;;20.24;38.56;102148.53;5117711;28;728;-54